Terminal Aerodrome Forecast
Issued by NWS

Home | Current Version | Previous Version | Text Only | Print | Product List | Glossary On
Versions: 1 2 3 4 5 6 7 8 9 10 11 12 13 14 15 16 17 18 19 20 21 22 23 24 25 26 27
000
FTUS41 KOKX 301432 AAA
TAFSWF
TAF AMD
KSWF 301432Z 3015/3118 08008KT P6SM FEW020 BKN100
     FM301600 12005KT P6SM VCSH BKN050 BKN120
     FM302100 18005KT 5SM -SHRA BKN040 BKN100
     FM310300 13003KT 2SM SHRA BR BKN020 OVC040
     FM310900 11006KT 2SM SHRA BR SCT009 OVC012
      AMD NOT SKED=

USA.gov is the U.S. government's official web portal to all federal, state and local government web resources and services.